createdAt,value
2023-03-23T15:58:47.773Z,17.69
2023-03-23T16:01:35.379Z,18.32
2023-03-23T16:04:08.782Z,17.64
2023-03-23T16:06:37.087Z,17.13
2023-03-23T16:09:06.344Z,17.71
2023-03-23T16:11:36.102Z,17.51
2023-03-23T16:14:05.356Z,17.55
2023-03-23T16:16:35.439Z,17.46
2023-03-23T16:19:06.203Z,16.77
2023-03-23T16:21:36.030Z,16.56
2023-03-23T16:24:03.504Z,16.23
2023-03-23T16:26:30.662Z,15.55
2023-03-23T16:29:06.049Z,15.38
2023-03-23T16:31:39.915Z,15.14
2023-03-23T16:34:09.685Z,14.44
2023-03-23T16:36:36.865Z,14.82
2023-03-23T16:39:04.552Z,14.64
2023-03-23T16:41:36.384Z,14.97
2023-03-23T16:44:06.297Z,14.97
2023-03-23T16:46:33.224Z,14.99
2023-03-23T16:49:00.112Z,14.68
2023-03-23T16:51:27.484Z,14.52
2023-03-23T16:53:57.523Z,14.61
2023-03-23T16:56:29.283Z,14.46
2023-03-23T16:58:56.175Z,14.30
2023-03-23T17:01:23.102Z,14.21
2023-03-23T17:03:50.088Z,14.34
2023-03-23T17:06:19.185Z,14.46
2023-03-23T17:08:49.104Z,14.40
2023-03-23T17:11:16.082Z,14.34
2023-03-23T17:13:45.179Z,14.16
2023-03-23T17:16:14.675Z,13.78
2023-03-23T17:18:41.652Z,13.79
2023-03-23T17:21:11.026Z,14.04
2023-03-23T17:23:42.497Z,13.83
2023-03-23T17:26:09.350Z,13.74
2023-03-23T17:28:40.815Z,13.66
2023-03-23T17:31:10.297Z,13.59
2023-03-23T17:33:37.213Z,13.67
2023-03-23T17:36:04.518Z,13.75
2023-03-23T17:38:33.492Z,13.67
2023-03-23T17:41:08.017Z,13.64
2023-03-23T17:43:36.346Z,13.60
2023-03-23T17:46:03.817Z,13.49
2023-03-23T17:48:33.579Z,13.24
2023-03-23T17:51:04.199Z,13.21
2023-03-23T17:53:35.308Z,13.21
2023-03-23T17:56:04.568Z,13.30
2023-03-23T17:58:35.188Z,13.28
2023-03-23T18:01:02.820Z,13.35
2023-03-23T18:03:34.297Z,13.42
2023-03-23T18:06:04.999Z,13.43
2023-03-23T18:08:32.719Z,13.47
2023-03-23T18:10:59.569Z,13.58
2023-03-23T18:13:28.999Z,13.72
2023-03-23T18:15:57.269Z,13.67
2023-03-23T18:18:26.154Z,13.73
2023-03-23T18:21:03.393Z,13.82
2023-03-23T18:23:37.426Z,13.71
2023-03-23T18:26:17.195Z,13.57
2023-03-23T18:28:44.278Z,13.52
2023-03-23T18:31:14.908Z,13.39
2023-03-23T18:33:44.909Z,13.38
2023-03-23T18:36:20.149Z,13.48
2023-03-23T18:38:48.005Z,13.45
2023-03-23T18:41:16.173Z,13.32
2023-03-23T18:43:43.331Z,13.31
2023-03-23T18:46:10.535Z,13.11
2023-03-23T18:48:37.649Z,13.39
2023-03-23T18:51:08.816Z,13.36
2023-03-23T18:53:36.087Z,13.47
2023-03-23T18:56:17.233Z,13.45
2023-03-23T18:58:45.724Z,13.51
2023-03-23T19:01:17.570Z,13.58
2023-03-23T19:03:47.328Z,13.41
2023-03-23T19:06:25.257Z,13.26
2023-03-23T19:08:55.751Z,13.39
2023-03-23T19:11:27.193Z,13.28
2023-03-23T19:14:02.272Z,13.59
2023-03-23T19:16:38.230Z,13.53
2023-03-23T19:19:08.275Z,13.50
2023-03-23T19:21:39.811Z,13.44
2023-03-23T19:24:11.234Z,13.50
2023-03-23T19:26:41.894Z,13.62
2023-03-23T19:29:26.732Z,13.92
2023-03-23T19:31:56.511Z,13.60
2023-03-23T19:34:25.259Z,13.55
2023-03-23T19:36:56.217Z,13.41
2023-03-23T19:39:29.097Z,13.65
2023-03-23T19:44:30.777Z,13.85
2023-03-23T19:46:58.897Z,13.73
2023-03-23T19:49:30.385Z,13.58
2023-03-23T19:52:06.370Z,13.55
2023-03-23T19:54:38.902Z,13.71
2023-03-23T19:57:09.877Z,13.73
2023-03-23T19:59:38.182Z,13.87
2023-03-23T20:02:05.983Z,13.85
2023-03-23T20:04:37.497Z,13.82
2023-03-23T20:07:07.489Z,13.70
2023-03-23T20:09:35.433Z,13.72
2023-03-23T20:12:05.107Z,13.72
2023-03-23T20:14:35.132Z,13.80
2023-03-23T20:17:02.384Z,13.79
2023-03-23T20:19:32.005Z,13.78
2023-03-23T20:21:58.941Z,13.63
2023-03-23T20:24:26.101Z,13.55
2023-03-23T20:26:53.015Z,13.32
2023-03-23T20:29:20.357Z,13.41
2023-03-23T20:31:47.349Z,13.33
2023-03-23T20:34:28.543Z,13.37
2023-03-23T20:36:58.157Z,13.39
2023-03-23T20:39:30.437Z,13.27
2023-03-23T20:42:00.516Z,13.33
2023-03-23T20:44:31.113Z,13.32
2023-03-23T20:47:01.624Z,13.36
2023-03-23T20:49:31.195Z,13.31
2023-03-23T20:52:00.287Z,13.20
2023-03-23T20:54:27.641Z,13.27
2023-03-23T20:57:00.353Z,13.05
2023-03-23T20:59:27.871Z,13.13
2023-03-23T21:01:55.252Z,13.14
2023-03-23T21:04:30.165Z,13.20
2023-03-23T21:07:00.962Z,13.45
2023-03-23T21:09:27.820Z,13.28
2023-03-23T21:11:55.276Z,12.98
2023-03-23T21:14:22.269Z,12.93
2023-03-23T21:16:49.262Z,12.92
2023-03-23T21:19:19.552Z,12.96
2023-03-23T21:21:56.285Z,12.91
2023-03-23T21:24:28.459Z,12.84
2023-03-23T21:26:58.272Z,13.02
2023-03-23T21:29:28.202Z,13.11
2023-03-23T21:32:08.254Z,13.19
2023-03-23T21:34:37.474Z,13.29
2023-03-23T21:37:06.747Z,13.29
2023-03-23T21:39:36.237Z,13.23
2023-03-23T21:42:04.680Z,13.28
2023-03-23T21:44:34.656Z,13.30
2023-03-23T21:47:04.792Z,13.52
2023-03-23T21:49:31.979Z,13.59
2023-03-23T21:51:58.928Z,13.69
2023-03-23T21:54:29.970Z,13.80
2023-03-23T21:57:03.988Z,13.90
2023-03-23T21:59:31.107Z,13.80
2023-03-23T22:02:01.909Z,13.66
2023-03-23T22:04:29.026Z,13.59
2023-03-23T22:06:56.774Z,13.46
2023-03-23T22:09:26.318Z,13.57
2023-03-23T22:11:58.201Z,13.53
2023-03-23T22:14:25.600Z,13.44
2023-03-23T22:16:52.535Z,13.38
2023-03-23T22:19:24.482Z,13.34
2023-03-23T22:21:51.578Z,13.42
2023-03-23T22:24:23.203Z,13.40
2023-03-23T22:26:50.352Z,13.30
2023-03-23T22:29:19.297Z,13.17
2023-03-23T22:31:48.979Z,13.34
2023-03-23T22:34:16.619Z,13.18
2023-03-23T22:36:43.681Z,13.34
2023-03-23T22:39:11.048Z,13.20
2023-03-23T22:41:42.187Z,13.24
2023-03-23T22:44:18.156Z,13.44
2023-03-23T22:46:48.081Z,13.51
2023-03-23T22:49:20.059Z,13.52
2023-03-23T22:51:47.229Z,13.46
2023-03-23T22:54:18.896Z,13.36
2023-03-23T22:56:46.540Z,13.44
2023-03-23T22:59:16.578Z,13.28
2023-03-23T23:01:43.490Z,13.20
2023-03-23T23:04:13.418Z,13.09
2023-03-23T23:06:47.464Z,13.15
2023-03-23T23:09:14.593Z,13.06
2023-03-23T23:11:46.519Z,13.23
2023-03-23T23:14:13.374Z,13.23
2023-03-23T23:16:44.520Z,13.24
2023-03-23T23:19:11.754Z,13.18
2023-03-23T23:21:41.174Z,13.05
2023-03-23T23:24:08.906Z,13.06
2023-03-23T23:26:38.107Z,12.99
2023-03-23T23:29:07.198Z,13.18
2023-03-23T23:31:34.662Z,13.02
2023-03-23T23:34:03.857Z,13.09
2023-03-23T23:36:33.700Z,13.05
2023-03-23T23:39:02.404Z,13.09
2023-03-23T23:41:32.199Z,13.25
2023-03-23T23:44:00.047Z,13.30
2023-03-23T23:46:31.001Z,13.17
2023-03-23T23:48:59.392Z,13.16
2023-03-23T23:51:33.563Z,13.01
2023-03-23T23:54:04.619Z,13.00
2023-03-23T23:56:31.644Z,13.32
2023-03-23T23:59:01.172Z,13.32
